KGUCKTEX

Guest
Details From KGUC - Gunnison Crested Butte Rgnl
To KTEX - Telluride Rgnl
Flight Number -
Tags generated
Created
Modified
Stats Distance 58 nm / 107 km
Max Altitude 2,400 ft / 732 m
Waypoints 3
Social Downloads 1
Likes 0
Share

Download

Looking for another format? Having issues loading an existing format? Contact us
Advertisement - Login to hide

Notes

Basic altitude profile: - Ascent Rate: 2500ft/min - Ascent Speed: 250kts - Cruise Altitude: 35000ft - Cruise Speed: 420kts - Descent Rate: 1500ft/min - Descent Speed: 250kts Options: - Use NATs: yes - Use PACOTS: yes - Use low airways: yes - Use high airways: yes

Route

KGUC HBU KTEX

ID Type Via Altitude (ft/m) Position (lat/lon) Dist (leg/tot) Name
O KGUC APT - 0 / 0 38.53224 / -106.93436 - / 0 nm Gunnison Crested Butte Rgnl
HBU DME - 2,400 / 732 38.45215 / -107.03979 6 / 6 nm BLUE MESA VOR-DME
O KTEX APT - 0 / 0 37.95381 / -107.90874 50 / 57 nm Telluride Rgnl

Altitude Profile

Advertisement - Login to hide

KGUC

Details ICAO KGUC (GUC)
Name Gunnison Crested Butte Rgnl
Region United States
Timezone America/Denver (UTC-7.0)
Stats Elevation 7,678 ft / 2,340 m (AMSL)
Location 38.532200° -106.934000°
Runways 2
Magnetic Variation 8.749° E

METAR

KGUC 031656Z AUTO 00000KT 10SM CLR M13/M18 A3046 RMK AO2 SLP417 T11281178 FZRANO

Decode

TAF

TAF KGUC 031120Z 0312/0412 VRB04KT P6SM SKC

Decode

Departure Runways

ID Width Length Bearing (true/mag) Surface Threshold Overrun Markings Lighting
06 151 ft / 46 m 9,379 ft / 2,859 m 73.48° / 64.73° ASPHALT 0 ft / 0 m 1,076 ft / 328 m PREC-APP EDGE THRESHOLD MALS
17 151 ft / 46 m 3,005 ft / 916 m 180.01° / 171.26° GRAVEL 0 ft / 0 m 0 ft / 0 m VISUAL
24 151 ft / 46 m 9,379 ft / 2,859 m 253.50° / 244.75° ASPHALT 0 ft / 0 m 200 ft / 61 m APP EDGE THRESHOLD REIL-OMNI
35 151 ft / 46 m 3,005 ft / 916 m 0.01° / 351.26° GRAVEL 200 ft / 61 m 0 ft / 0 m VISUAL

KTEX

Details ICAO KTEX (TEX)
Name Telluride Rgnl
Region United States
Timezone America/Denver (UTC-7.0)
Stats Elevation 9,078 ft / 2,767 m (AMSL)
Location 37.953800° -107.909000°
Runways 1
Magnetic Variation 9.122° E

METAR

KTEX 031715Z AUTO 00000KT 10SM CLR M06/M16 A3033 RMK AO2

Decode

TAF

TAF KTEX 031120Z 0312/0412 VRB04KT P6SM SKC FM031800 28006KT P6SM SKC FM040300 13004KT P6SM SKC

Decode

Destination Runways

ID Width Length Bearing (true/mag) Surface Threshold Overrun Markings Lighting
09 98 ft / 30 m 7,116 ft / 2,169 m 104.97° / 95.85° ASPHALT 213 ft / 65 m 397 ft / 121 m APP CENTERLINE EDGE THRESHOLD
27 98 ft / 30 m 7,116 ft / 2,169 m 284.99° / 275.87° ASPHALT 210 ft / 64 m 397 ft / 121 m APP CENTERLINE EDGE THRESHOLD

Approach Navaids

Runway Type Ident Frequency Range Bearing (true/mag) Slope Elevation
09 DME ITEX 109.30 MHz 18 nm / 33 km - - 9,078 ft / 2,767 m (AMSL)

Popular Alternatives